createdAt,value
2022-09-12T00:01:25.559Z,10.00
2022-09-12T00:03:55.044Z,9.57
2022-09-12T00:06:26.598Z,10.73
2022-09-12T00:08:58.541Z,10.05
2022-09-12T00:11:28.037Z,10.50
2022-09-12T00:14:01.448Z,11.50
2022-09-12T00:16:33.371Z,11.55
2022-09-12T00:19:02.382Z,10.88
2022-09-12T00:21:31.468Z,11.15
2022-09-12T00:23:59.539Z,12.45
2022-09-12T00:26:27.766Z,13.13
2022-09-12T00:28:56.030Z,12.35
2022-09-12T00:31:26.391Z,11.98
2022-09-12T00:34:00.651Z,11.60
2022-09-12T00:36:31.581Z,12.18
2022-09-12T00:39:00.004Z,12.15
2022-09-12T00:41:31.347Z,11.38
2022-09-12T00:44:02.183Z,11.07
2022-09-12T00:46:38.745Z,10.90
2022-09-12T00:49:16.761Z,10.13
2022-09-12T00:51:50.723Z,10.80
2022-09-12T00:54:25.167Z,9.57
2022-09-12T00:56:58.921Z,10.93
2022-09-12T00:59:33.347Z,11.35
2022-09-12T01:02:01.763Z,11.40
2022-09-12T01:04:32.095Z,10.40
2022-09-12T01:07:00.560Z,11.40
2022-09-12T01:09:28.691Z,10.60
2022-09-12T01:11:57.554Z,11.07
2022-09-12T01:14:26.144Z,11.07
2022-09-12T01:16:54.277Z,11.02
2022-09-12T01:20:26.592Z,11.85
2022-09-12T01:23:49.664Z,10.50
2022-09-12T01:26:58.289Z,11.70
2022-09-12T01:29:51.819Z,12.13
2022-09-12T01:32:33.195Z,12.10
2022-09-12T01:35:16.754Z,11.90
2022-09-12T01:37:56.531Z,11.32
2022-09-12T01:40:34.506Z,10.32
2022-09-12T01:43:18.402Z,11.05
2022-09-12T01:45:57.268Z,10.90
2022-09-12T01:48:35.767Z,11.10
2022-09-12T01:51:14.196Z,11.52
2022-09-12T01:53:49.103Z,11.77
2022-09-12T01:56:22.676Z,10.77
2022-09-12T01:58:56.984Z,12.02
2022-09-12T02:01:30.476Z,11.27
2022-09-12T02:04:10.243Z,10.90
2022-09-12T02:06:47.874Z,11.68
2022-09-12T02:09:24.266Z,11.40
2022-09-12T02:11:59.614Z,11.63
2022-09-12T02:14:33.059Z,12.02
2022-09-12T02:17:10.676Z,12.00
2022-09-12T02:19:47.098Z,12.25
2022-09-12T02:22:20.889Z,12.27
2022-09-12T02:24:56.821Z,12.15
2022-09-12T02:27:31.396Z,12.93
2022-09-12T02:29:59.824Z,13.40
2022-09-12T02:32:38.077Z,13.48
2022-09-12T02:35:15.928Z,12.07
2022-09-12T02:37:58.626Z,13.23
2022-09-12T02:40:27.125Z,12.50
2022-09-12T02:42:55.188Z,12.75
2022-09-12T02:45:23.788Z,13.80
2022-09-12T02:47:59.630Z,13.27
2022-09-12T02:50:30.160Z,13.57
2022-09-12T02:53:02.144Z,13.20
2022-09-12T02:55:31.079Z,14.15
2022-09-12T02:57:59.335Z,14.07
2022-09-12T03:00:29.881Z,13.93
2022-09-12T03:03:27.249Z,13.90
2022-09-12T03:06:01.986Z,13.95
2022-09-12T03:09:06.089Z,13.85
2022-09-12T03:12:03.878Z,15.05
2022-09-12T03:15:16.321Z,14.85
2022-09-12T03:18:04.575Z,14.52
2022-09-12T03:20:47.265Z,14.83
2022-09-12T03:23:27.184Z,15.90
2022-09-12T03:26:02.172Z,15.77
2022-09-12T03:28:33.748Z,16.57
2022-09-12T03:31:02.041Z,15.63
2022-09-12T03:33:31.220Z,15.38
2022-09-12T03:35:59.374Z,15.70
2022-09-12T03:38:28.771Z,15.23
2022-09-12T03:40:56.779Z,15.82
2022-09-12T03:43:24.813Z,16.40
2022-09-12T03:45:53.314Z,15.07
2022-09-12T03:48:21.439Z,15.90
2022-09-12T03:50:49.452Z,16.27
2022-09-12T03:53:17.641Z,15.67
2022-09-12T03:55:47.114Z,16.33
2022-09-12T03:58:15.067Z,16.50
2022-09-12T04:00:44.266Z,16.20
2022-09-12T04:03:12.280Z,16.40
2022-09-12T04:05:40.343Z,16.23
2022-09-12T04:08:08.334Z,17.30
2022-09-12T04:10:36.359Z,17.40
2022-09-12T04:13:05.780Z,17.13
2022-09-12T04:15:33.804Z,17.50
2022-09-12T04:18:05.790Z,16.43
2022-09-12T04:20:34.326Z,16.77
2022-09-12T04:23:02.365Z,17.80
2022-09-12T04:25:31.365Z,17.30
2022-09-12T04:27:59.380Z,17.60
2022-09-12T04:30:28.792Z,17.80
2022-09-12T04:32:56.841Z,17.33
2022-09-12T04:35:24.815Z,18.20
2022-09-12T04:37:53.060Z,16.60
2022-09-12T04:40:21.208Z,17.73
2022-09-12T04:42:49.203Z,18.02
2022-09-12T04:45:17.382Z,17.55
2022-09-12T04:47:47.323Z,16.90
2022-09-12T04:50:15.480Z,16.50
2022-09-12T04:52:43.762Z,17.17
2022-09-12T04:55:11.759Z,16.70
2022-09-12T04:57:39.996Z,16.08
2022-09-12T05:00:10.681Z,15.90
2022-09-12T05:02:38.666Z,15.48
2022-09-12T05:05:09.858Z,16.17
2022-09-12T05:07:38.106Z,16.27
2022-09-12T05:10:07.016Z,17.03
2022-09-12T05:12:35.827Z,17.48
2022-09-12T05:15:04.645Z,16.97
2022-09-12T05:17:32.830Z,16.95
2022-09-12T05:20:01.663Z,16.47
2022-09-12T05:22:30.984Z,15.82
2022-09-12T05:24:59.005Z,16.20
2022-09-12T05:27:26.974Z,16.67
2022-09-12T05:29:55.199Z,17.40
2022-09-12T05:32:23.219Z,16.10
2022-09-12T05:34:51.185Z,16.33
2022-09-12T05:37:19.172Z,18.03
2022-09-12T05:39:48.632Z,17.50
2022-09-12T05:42:16.707Z,16.58
2022-09-12T05:44:44.689Z,16.88
2022-09-12T05:47:13.461Z,15.40
2022-09-12T05:49:41.585Z,16.17
2022-09-12T05:52:09.567Z,17.25
2022-09-12T05:54:37.559Z,17.13
2022-09-12T05:57:07.108Z,15.02
2022-09-12T05:59:35.149Z,15.07
2022-09-12T06:02:03.227Z,15.23
2022-09-12T06:04:31.245Z,15.18
2022-09-12T06:06:59.242Z,14.60
2022-09-12T06:09:28.026Z,14.75
2022-09-12T06:11:56.028Z,14.23
2022-09-12T06:14:25.344Z,14.95
2022-09-12T06:16:53.508Z,14.75
2022-09-12T06:19:25.033Z,15.18
2022-09-12T06:21:53.383Z,14.32
2022-09-12T06:24:22.694Z,14.35
2022-09-12T06:26:52.598Z,14.30
2022-09-12T06:29:21.154Z,13.38
2022-09-12T06:31:50.524Z,12.98
2022-09-12T06:34:19.554Z,14.50
2022-09-12T06:36:50.339Z,15.35
2022-09-12T06:39:21.458Z,14.23
2022-09-12T06:41:51.677Z,15.10
2022-09-12T06:44:22.414Z,14.55
2022-09-12T06:46:53.629Z,14.45
2022-09-12T06:49:21.609Z,13.65
2022-09-12T06:51:49.609Z,14.52
2022-09-12T06:54:18.180Z,14.30
2022-09-12T06:56:46.354Z,15.25
2022-09-12T06:59:14.545Z,14.55
2022-09-12T07:01:42.818Z,14.38
2022-09-12T07:04:12.604Z,13.90
2022-09-12T07:06:44.554Z,14.10
2022-09-12T07:09:16.954Z,13.80
2022-09-12T07:11:47.232Z,12.20
2022-09-12T07:14:16.812Z,13.95
2022-09-12T07:16:45.139Z,13.27
2022-09-12T07:19:14.618Z,13.00
2022-09-12T07:21:42.595Z,13.35
2022-09-12T07:24:11.710Z,11.48
2022-09-12T07:26:41.990Z,11.38
2022-09-12T07:32:05.805Z,13.45
2022-09-12T07:34:36.183Z,11.38
2022-09-12T07:37:04.659Z,12.88
2022-09-12T07:39:32.633Z,12.98
2022-09-12T07:42:01.357Z,10.98
2022-09-12T07:44:29.399Z,11.70
2022-09-12T07:46:57.397Z,12.70
2022-09-12T07:49:25.411Z,10.93
2022-09-12T07:51:55.123Z,12.63
2022-09-12T07:54:23.354Z,12.73
2022-09-12T07:56:51.669Z,11.10
2022-09-12T07:59:41.397Z,11.20
2022-09-12T08:02:16.068Z,11.75
2022-09-12T08:04:44.989Z,12.00
2022-09-12T08:07:14.374Z,11.70
2022-09-12T08:09:42.395Z,11.70
2022-09-12T08:12:10.376Z,9.60
2022-09-12T08:14:38.370Z,10.60
2022-09-12T08:17:06.642Z,12.68
2022-09-12T08:19:34.751Z,9.95
2022-09-12T08:22:03.089Z,10.52
2022-09-12T08:24:33.594Z,9.82
2022-09-12T08:27:01.561Z,9.77
2022-09-12T08:29:29.552Z,8.13
2022-09-12T08:31:57.566Z,9.82
2022-09-12T08:34:26.174Z,8.38
2022-09-12T08:36:55.029Z,7.15
2022-09-12T08:39:23.590Z,7.10
2022-09-12T08:42:02.876Z,6.93
2022-09-12T08:45:03.512Z,6.68
2022-09-12T08:47:36.790Z,8.32
2022-09-12T08:50:16.404Z,7.85
2022-09-12T08:52:54.057Z,6.00
2022-09-12T08:55:33.199Z,7.57
2022-09-12T08:58:12.691Z,7.03
2022-09-12T09:00:56.120Z,5.90
2022-09-12T09:03:57.126Z,5.28
2022-09-12T09:06:47.116Z,6.47
2022-09-12T09:09:30.057Z,7.43
2022-09-12T09:12:08.825Z,7.60
2022-09-12T09:15:28.243Z,6.13
2022-09-12T09:18:04.131Z,6.90
2022-09-12T09:20:40.321Z,6.50
2022-09-12T09:23:15.950Z,4.70
2022-09-12T09:25:55.389Z,7.72
2022-09-12T09:28:32.197Z,6.88
2022-09-12T09:31:02.102Z,6.07
2022-09-12T09:33:36.047Z,5.60
2022-09-12T09:36:19.056Z,5.65
2022-09-12T09:38:51.403Z,6.53
2022-09-12T09:41:38.219Z,6.18
2022-09-12T09:46:41.040Z,5.40
2022-09-12T09:49:15.004Z,4.97
2022-09-12T09:51:44.436Z,4.00
2022-09-12T09:54:22.390Z,5.15
2022-09-12T09:56:51.102Z,4.38
2022-09-12T09:59:26.870Z,4.90
2022-09-12T10:02:02.048Z,4.32
2022-09-12T10:04:34.510Z,3.40
2022-09-12T10:07:05.889Z,4.55
2022-09-12T10:09:36.951Z,4.50
2022-09-12T10:12:26.131Z,4.32
2022-09-12T10:15:00.571Z,5.05
2022-09-12T10:17:40.351Z,4.25
2022-09-12T10:20:33.349Z,4.40
2022-09-12T10:23:21.365Z,4.30
2022-09-12T10:25:56.027Z,4.15
2022-09-12T10:28:32.309Z,2.90
2022-09-12T10:31:01.491Z,2.22
2022-09-12T10:33:31.669Z,2.75
2022-09-12T10:36:00.555Z,3.22
2022-09-12T10:38:34.378Z,3.90
2022-09-12T10:41:07.543Z,3.30
2022-09-12T10:43:39.472Z,3.38
2022-09-12T10:46:30.759Z,4.10
2022-09-12T10:49:29.013Z,3.60
2022-09-12T10:52:16.495Z,3.58
2022-09-12T10:54:44.630Z,3.25
2022-09-12T10:57:36.438Z,3.10
2022-09-12T11:00:15.400Z,3.08
2022-09-12T11:02:58.439Z,2.58
2022-09-12T11:05:46.968Z,2.70
2022-09-12T11:08:52.059Z,2.60
2022-09-12T11:11:45.923Z,2.60
2022-09-12T11:14:36.674Z,2.90
2022-09-12T11:17:26.132Z,3.13
2022-09-12T11:20:17.667Z,2.50
2022-09-12T11:23:26.605Z,2.85
2022-09-12T11:26:03.376Z,3.33
2022-09-12T11:28:49.750Z,3.50
2022-09-12T11:32:15.899Z,2.78
2022-09-12T11:35:01.250Z,3.13
2022-09-12T11:38:29.217Z,2.90
2022-09-12T11:41:03.464Z,3.22
2022-09-12T11:43:42.265Z,3.22
2022-09-12T11:46:22.067Z,3.40
2022-09-12T11:48:59.007Z,3.40
2022-09-12T11:51:33.991Z,3.50
2022-09-12T11:54:19.514Z,3.30
2022-09-12T11:56:51.886Z,3.55
2022-09-12T11:59:35.637Z,14.25
2022-09-12T12:02:11.963Z,4.55
2022-09-12T12:05:04.989Z,3.17
2022-09-12T12:07:45.576Z,3.13
2022-09-12T12:10:31.003Z,3.55
2022-09-12T12:13:01.971Z,3.00
2022-09-12T12:15:31.775Z,3.03
2022-09-12T12:18:07.120Z,2.65
2022-09-12T12:20:36.228Z,2.90
2022-09-12T12:23:05.380Z,2.80
2022-09-12T12:25:53.299Z,2.75
2022-09-12T12:29:00.390Z,2.97
2022-09-12T12:31:28.571Z,2.80
2022-09-12T12:34:18.525Z,3.03
2022-09-12T12:36:50.171Z,2.90
2022-09-12T12:40:05.849Z,2.75
2022-09-12T12:43:07.517Z,2.50
2022-09-12T12:46:03.768Z,2.97
2022-09-12T12:48:54.867Z,2.70
2022-09-12T12:51:57.770Z,3.30
2022-09-12T12:54:59.901Z,2.90
2022-09-12T12:57:38.872Z,2.55
2022-09-12T13:00:29.879Z,2.70
2022-09-12T13:03:03.267Z,2.80
2022-09-12T13:05:42.002Z,2.83
2022-09-12T13:08:26.810Z,3.00
2022-09-12T13:11:00.594Z,2.63
2022-09-12T13:13:34.667Z,2.88
2022-09-12T13:16:05.131Z,2.95
2022-09-12T13:18:46.458Z,3.10
2022-09-12T13:21:19.373Z,3.00
2022-09-12T13:24:02.529Z,2.60
2022-09-12T13:26:37.055Z,3.08
2022-09-12T13:29:12.604Z,3.00
2022-09-12T13:31:47.247Z,2.72
2022-09-12T13:34:22.828Z,2.47
2022-09-12T13:37:26.539Z,2.70
2022-09-12T13:40:11.766Z,3.10
2022-09-12T13:42:42.522Z,2.90
2022-09-12T13:45:21.131Z,2.92
2022-09-12T13:47:58.521Z,3.05
2022-09-12T13:50:32.056Z,2.60
2022-09-12T13:53:05.391Z,3.10
2022-09-12T13:55:38.127Z,3.00
2022-09-12T13:58:16.219Z,3.10
2022-09-12T14:00:45.025Z,2.95
2022-09-12T14:03:59.106Z,3.20
2022-09-12T14:06:28.236Z,3.13
2022-09-12T14:08:58.325Z,2.92
2022-09-12T14:11:30.625Z,3.35
2022-09-12T14:14:00.113Z,2.80
2022-09-12T14:16:28.903Z,3.00
2022-09-12T14:19:00.591Z,3.00
2022-09-12T14:21:36.820Z,3.05
2022-09-12T14:24:08.546Z,3.17
2022-09-12T14:26:40.497Z,2.90
2022-09-12T14:29:10.091Z,3.42
2022-09-12T14:31:41.288Z,3.35
2022-09-12T14:34:16.926Z,3.20
2022-09-12T14:36:48.779Z,3.00
2022-09-12T14:39:27.806Z,3.80
2022-09-12T14:42:07.312Z,3.22
2022-09-12T14:44:36.870Z,3.30
2022-09-12T14:47:20.536Z,2.95
2022-09-12T14:49:52.506Z,3.30
2022-09-12T14:52:29.505Z,3.40
2022-09-12T14:55:00.224Z,3.40
2022-09-12T14:57:40.018Z,3.13
2022-09-12T15:00:24.113Z,2.90
2022-09-12T15:02:53.874Z,3.20
2022-09-12T15:05:28.479Z,3.25
2022-09-12T15:08:00.484Z,3.05
2022-09-12T15:10:33.040Z,3.45
2022-09-12T15:13:20.249Z,3.47
2022-09-12T15:15:51.901Z,3.30
2022-09-12T15:18:21.374Z,3.13
2022-09-12T15:20:53.954Z,3.20
2022-09-12T15:23:36.727Z,3.50
2022-09-12T15:26:06.339Z,3.20
2022-09-12T15:28:35.478Z,2.97
2022-09-12T15:31:12.875Z,2.95
2022-09-12T15:33:41.031Z,2.83
2022-09-12T15:36:17.747Z,3.70
2022-09-12T15:38:47.012Z,3.13
2022-09-12T15:41:19.337Z,3.25
2022-09-12T15:43:47.929Z,2.85
2022-09-12T15:46:19.015Z,2.90
2022-09-12T15:48:47.585Z,2.90
2022-09-12T15:51:19.679Z,2.80
2022-09-12T15:53:49.552Z,2.92
2022-09-12T15:56:19.593Z,4.38
2022-09-12T15:58:58.717Z,3.90
2022-09-12T16:01:28.659Z,3.88
2022-09-12T16:03:57.332Z,3.80
2022-09-12T16:06:27.823Z,3.58
2022-09-12T16:08:56.417Z,3.78
2022-09-12T16:11:27.464Z,3.40
2022-09-12T16:13:58.061Z,3.78
2022-09-12T16:16:26.178Z,2.83
2022-09-12T16:18:54.213Z,3.50
2022-09-12T16:21:22.294Z,2.92
2022-09-12T16:23:51.940Z,3.28
2022-09-12T16:26:19.986Z,2.70
2022-09-12T16:28:48.173Z,2.85
2022-09-12T16:31:16.330Z,3.05
2022-09-12T16:33:44.288Z,2.88
2022-09-12T16:36:15.270Z,3.30
2022-09-12T16:38:44.371Z,2.38
2022-09-12T16:41:15.218Z,2.63
2022-09-12T16:43:43.767Z,3.60
2022-09-12T16:46:13.911Z,3.38
2022-09-12T16:48:49.549Z,3.05
2022-09-12T16:51:21.470Z,3.60
2022-09-12T16:53:50.599Z,2.92
2022-09-12T16:56:20.123Z,3.53
2022-09-12T16:58:49.248Z,3.15
2022-09-12T17:01:20.313Z,3.33
2022-09-12T17:03:48.732Z,2.80
2022-09-12T17:06:19.844Z,3.45
2022-09-12T17:08:51.913Z,3.40
2022-09-12T17:11:24.374Z,4.45
2022-09-12T17:14:11.015Z,3.50
2022-09-12T17:16:42.531Z,3.30
2022-09-12T17:19:17.166Z,3.50
2022-09-12T17:21:47.075Z,3.50
2022-09-12T17:24:15.955Z,3.33
2022-09-12T17:26:45.754Z,3.67
2022-09-12T17:29:14.779Z,3.38
2022-09-12T17:31:44.502Z,3.42
2022-09-12T17:34:14.309Z,3.30
2022-09-12T17:36:44.379Z,3.33
2022-09-12T17:39:13.757Z,3.20
2022-09-12T17:41:42.992Z,3.00
2022-09-12T17:44:15.802Z,3.03
2022-09-12T17:46:44.706Z,3.30
2022-09-12T17:49:16.064Z,3.40
2022-09-12T17:51:45.466Z,3.42
2022-09-12T17:54:16.652Z,3.22
2022-09-12T17:56:47.268Z,3.35
2022-09-12T17:59:19.664Z,3.30
2022-09-12T18:02:05.589Z,3.60
2022-09-12T18:04:33.745Z,3.10
2022-09-12T18:07:01.907Z,3.38
2022-09-12T18:09:30.675Z,3.30
2022-09-12T18:11:58.768Z,3.75
2022-09-12T18:14:29.533Z,3.42
2022-09-12T18:16:58.086Z,3.35
2022-09-12T18:19:26.616Z,3.67
2022-09-12T18:21:55.866Z,4.05
2022-09-12T18:24:24.451Z,3.92
2022-09-12T18:26:52.450Z,3.90
2022-09-12T18:29:20.926Z,3.70
2022-09-12T18:31:50.800Z,3.97
2022-09-12T18:34:19.555Z,3.75
2022-09-12T18:36:51.288Z,4.03
2022-09-12T18:39:21.972Z,4.28
2022-09-12T18:41:52.016Z,3.65
2022-09-12T18:44:20.185Z,4.03
2022-09-12T18:46:48.239Z,3.92
2022-09-12T18:49:18.443Z,3.83
2022-09-12T18:51:46.602Z,3.90
2022-09-12T18:54:15.395Z,4.45
2022-09-12T18:56:45.587Z,4.20
2022-09-12T18:59:14.787Z,4.40
2022-09-12T19:01:43.872Z,4.50
2022-09-12T19:04:14.379Z,4.50
2022-09-12T19:06:46.642Z,4.53
2022-09-12T19:09:20.536Z,4.63
2022-09-12T19:11:52.577Z,5.03
2022-09-12T19:14:23.889Z,5.10
2022-09-12T19:16:52.633Z,4.38
2022-09-12T19:19:21.171Z,5.00
2022-09-12T19:21:50.616Z,4.57
2022-09-12T19:24:18.747Z,4.55
2022-09-12T19:26:47.142Z,5.18
2022-09-12T19:29:16.683Z,4.57
2022-09-12T19:31:45.694Z,4.80
2022-09-12T19:34:14.597Z,4.90
2022-09-12T19:36:45.891Z,4.53
2022-09-12T19:39:17.857Z,4.68
2022-09-12T19:41:46.798Z,4.75
2022-09-12T19:44:14.868Z,4.63
2022-09-12T19:46:43.389Z,5.10
2022-09-12T19:49:13.076Z,4.32
2022-09-12T19:51:41.620Z,4.97
2022-09-12T19:54:09.901Z,5.75
2022-09-12T19:56:39.262Z,5.30
2022-09-12T19:59:07.438Z,5.55
2022-09-12T20:01:37.070Z,5.13
2022-09-12T20:04:06.703Z,5.65
2022-09-12T20:06:34.849Z,5.65
2022-09-12T20:09:03.132Z,5.10
2022-09-12T20:11:31.492Z,5.90
2022-09-12T20:14:01.042Z,5.60
2022-09-12T20:16:30.036Z,6.05
2022-09-12T20:19:02.072Z,4.90
2022-09-12T20:21:34.057Z,5.45
2022-09-12T20:24:05.563Z,5.20
2022-09-12T20:26:34.238Z,5.32
2022-09-12T20:29:05.309Z,5.28
2022-09-12T20:31:34.452Z,5.10
2022-09-12T20:34:02.651Z,4.68
2022-09-12T20:36:30.647Z,4.60
2022-09-12T20:39:01.438Z,4.85
2022-09-12T20:41:33.501Z,4.70
2022-09-12T20:44:03.126Z,5.20
2022-09-12T20:46:31.213Z,5.30
2022-09-12T20:48:59.464Z,5.18
2022-09-12T20:51:29.575Z,5.80
2022-09-12T20:53:59.539Z,4.65
2022-09-12T20:56:29.363Z,4.50
2022-09-12T20:58:58.067Z,4.82
2022-09-12T21:01:30.052Z,4.95
2022-09-12T21:04:00.103Z,4.97
2022-09-12T21:06:28.440Z,4.68
2022-09-12T21:08:59.724Z,4.93
2022-09-12T21:11:29.189Z,4.80
2022-09-12T21:13:58.268Z,4.30
2022-09-12T21:16:27.837Z,4.10
2022-09-12T21:18:58.238Z,4.38
2022-09-12T21:21:27.547Z,4.50
2022-09-12T21:23:59.777Z,4.70
2022-09-12T21:26:28.320Z,4.90
2022-09-12T21:28:56.434Z,4.32
2022-09-12T21:31:25.456Z,4.45
2022-09-12T21:33:54.842Z,4.97
2022-09-12T21:36:22.957Z,4.60
2022-09-12T21:38:51.067Z,4.38
2022-09-12T21:41:19.329Z,4.28
2022-09-12T21:43:47.572Z,4.47
2022-09-12T21:46:15.898Z,4.38
2022-09-12T21:48:44.491Z,4.30
2022-09-12T21:51:13.842Z,4.30
2022-09-12T21:53:42.361Z,4.70
2022-09-12T21:56:10.768Z,4.80
2022-09-12T21:58:39.309Z,4.57
2022-09-12T22:01:09.636Z,5.05
2022-09-12T22:03:37.776Z,4.45
2022-09-12T22:06:07.766Z,4.88
2022-09-12T22:08:38.861Z,4.78
2022-09-12T22:11:10.249Z,5.00
2022-09-12T22:13:42.003Z,4.90
2022-09-12T22:16:10.854Z,4.60
2022-09-12T22:18:39.177Z,4.40
2022-09-12T22:21:12.259Z,4.70
2022-09-12T22:23:59.279Z,4.60
2022-09-12T22:26:28.130Z,4.72
2022-09-12T22:28:56.444Z,4.70
2022-09-12T22:31:24.542Z,5.20
2022-09-12T22:33:52.564Z,5.07
2022-09-12T22:36:20.557Z,4.68
2022-09-12T22:38:50.060Z,4.65
2022-09-12T22:41:18.100Z,4.75
2022-09-12T22:43:46.245Z,5.30
2022-09-12T22:46:14.592Z,5.35
2022-09-12T22:48:42.885Z,5.00
2022-09-12T22:51:11.777Z,5.07
2022-09-12T22:53:40.514Z,5.10
2022-09-12T22:56:10.572Z,5.50
2022-09-12T22:58:38.627Z,5.38
2022-09-12T23:01:07.554Z,4.82
2022-09-12T23:03:36.354Z,5.18
2022-09-12T23:06:04.730Z,5.45
2022-09-12T23:08:32.978Z,5.40
2022-09-12T23:11:06.492Z,5.60
2022-09-12T23:13:36.111Z,4.97
2022-09-12T23:16:08.490Z,5.22
2022-09-12T23:18:37.660Z,5.40
2022-09-12T23:21:08.962Z,5.80
2022-09-12T23:23:37.812Z,5.80
2022-09-12T23:26:08.871Z,5.68
2022-09-12T23:28:39.052Z,6.30
2022-09-12T23:31:09.421Z,6.15
2022-09-12T23:33:37.831Z,6.57
2022-09-12T23:36:12.622Z,6.72
2022-09-12T23:38:42.146Z,6.18
2022-09-12T23:41:11.541Z,6.82
2022-09-12T23:43:42.891Z,6.60
2022-09-12T23:46:11.142Z,6.50
2022-09-12T23:48:39.549Z,6.60
2022-09-12T23:51:08.110Z,7.43
2022-09-12T23:53:36.563Z,7.45
2022-09-12T23:56:05.326Z,6.70
2022-09-12T23:58:34.103Z,7.32
